sensor_id;sensor_type;location;lat;lon;timestamp;P1;durP1;ratioP1;P2;durP2;ratioP2
25615;SDS011;13482;48.234;13.006;2023-03-21T00:01:53;2.17;;;1.50;;
25615;SDS011;13482;48.234;13.006;2023-03-21T00:04:21;2.17;;;1.25;;
25615;SDS011;13482;48.234;13.006;2023-03-21T00:06:49;1.80;;;1.20;;
25615;SDS011;13482;48.234;13.006;2023-03-21T00:09:17;2.63;;;1.20;;
25615;SDS011;13482;48.234;13.006;2023-03-21T00:11:45;2.60;;;1.42;;
25615;SDS011;13482;48.234;13.006;2023-03-21T00:14:12;2.97;;;1.40;;
25615;SDS011;13482;48.234;13.006;2023-03-21T00:16:46;2.03;;;1.40;;
25615;SDS011;13482;48.234;13.006;2023-03-21T00:19:18;2.30;;;1.20;;
25615;SDS011;13482;48.234;13.006;2023-03-21T00:21:46;1.92;;;1.27;;
25615;SDS011;13482;48.234;13.006;2023-03-21T00:24:34;1.70;;;1.20;;
25615;SDS011;13482;48.234;13.006;2023-03-21T00:27:02;2.03;;;1.10;;
25615;SDS011;13482;48.234;13.006;2023-03-21T00:29:50;2.05;;;1.10;;
25615;SDS011;13482;48.234;13.006;2023-03-21T00:32:18;1.90;;;1.20;;
25615;SDS011;13482;48.234;13.006;2023-03-21T00:34:47;2.38;;;1.40;;
25615;SDS011;13482;48.234;13.006;2023-03-21T00:37:35;2.03;;;1.00;;
25615;SDS011;13482;48.234;13.006;2023-03-21T00:40:02;1.92;;;1.15;;
25615;SDS011;13482;48.234;13.006;2023-03-21T00:42:48;1.52;;;1.00;;
25615;SDS011;13482;48.234;13.006;2023-03-21T00:45:15;1.67;;;1.05;;
25615;SDS011;13482;48.234;13.006;2023-03-21T00:47:44;2.08;;;1.25;;
25615;SDS011;13482;48.234;13.006;2023-03-21T00:50:11;2.78;;;1.10;;
25615;SDS011;13482;48.234;13.006;2023-03-21T00:52:39;1.80;;;1.10;;
25615;SDS011;13482;48.234;13.006;2023-03-21T00:55:08;1.42;;;0.93;;
25615;SDS011;13482;48.234;13.006;2023-03-21T00:57:39;1.35;;;1.00;;
25615;SDS011;13482;48.234;13.006;2023-03-21T01:00:09;1.38;;;0.98;;
25615;SDS011;13482;48.234;13.006;2023-03-21T01:02:39;1.27;;;1.00;;
25615;SDS011;13482;48.234;13.006;2023-03-21T01:05:31;3.70;;;1.17;;
25615;SDS011;13482;48.234;13.006;2023-03-21T01:08:32;1.08;;;0.65;;
25615;SDS011;13482;48.234;13.006;2023-03-21T01:11:19;1.35;;;0.90;;
25615;SDS011;13482;48.234;13.006;2023-03-21T01:13:50;1.23;;;0.90;;
25615;SDS011;13482;48.234;13.006;2023-03-21T01:16:29;1.38;;;0.90;;
25615;SDS011;13482;48.234;13.006;2023-03-21T01:18:57;1.40;;;1.00;;
25615;SDS011;13482;48.234;13.006;2023-03-21T01:21:25;1.67;;;0.90;;
25615;SDS011;13482;48.234;13.006;2023-03-21T01:23:52;1.70;;;1.10;;
25615;SDS011;13482;48.234;13.006;2023-03-21T01:28:55;1.40;;;0.90;;
25615;SDS011;13482;48.234;13.006;2023-03-21T01:31:22;1.90;;;1.13;;
25615;SDS011;13482;48.234;13.006;2023-03-21T01:33:50;1.30;;;0.90;;
25615;SDS011;13482;48.234;13.006;2023-03-21T01:36:18;1.60;;;0.98;;
25615;SDS011;13482;48.234;13.006;2023-03-21T01:38:50;1.98;;;1.00;;
25615;SDS011;13482;48.234;13.006;2023-03-21T01:41:28;1.60;;;0.90;;
25615;SDS011;13482;48.234;13.006;2023-03-21T01:44:15;2.28;;;1.40;;
25615;SDS011;13482;48.234;13.006;2023-03-21T01:46:48;1.67;;;1.00;;
25615;SDS011;13482;48.234;13.006;2023-03-21T01:49:37;1.70;;;0.93;;
25615;SDS011;13482;48.234;13.006;2023-03-21T01:52:13;2.58;;;1.17;;
25615;SDS011;13482;48.234;13.006;2023-03-21T01:55:02;2.53;;;1.00;;
25615;SDS011;13482;48.234;13.006;2023-03-21T01:57:35;1.88;;;1.20;;
25615;SDS011;13482;48.234;13.006;2023-03-21T02:00:27;1.65;;;1.10;;
25615;SDS011;13482;48.234;13.006;2023-03-21T02:02:54;1.92;;;1.20;;
25615;SDS011;13482;48.234;13.006;2023-03-21T02:08:26;1.80;;;1.23;;
25615;SDS011;13482;48.234;13.006;2023-03-21T02:11:04;1.95;;;1.10;;
25615;SDS011;13482;48.234;13.006;2023-03-21T02:13:35;1.75;;;1.23;;
25615;SDS011;13482;48.234;13.006;2023-03-21T02:19:05;1.65;;;1.10;;
25615;SDS011;13482;48.234;13.006;2023-03-21T02:28:53;3.30;;;2.60;;
25615;SDS011;13482;48.234;13.006;2023-03-21T02:31:35;3.55;;;2.33;;
25615;SDS011;13482;48.234;13.006;2023-03-21T02:37:40;3.00;;;2.10;;
25615;SDS011;13482;48.234;13.006;2023-03-21T02:48:38;1.40;;;1.08;;
25615;SDS011;13482;48.234;13.006;2023-03-21T02:51:17;1.65;;;1.10;;
25615;SDS011;13482;48.234;13.006;2023-03-21T02:53:49;4.65;;;1.40;;
25615;SDS011;13482;48.234;13.006;2023-03-21T02:56:47;2.65;;;1.08;;
25615;SDS011;13482;48.234;13.006;2023-03-21T02:59:17;2.10;;;1.13;;
25615;SDS011;13482;48.234;13.006;2023-03-21T03:01:46;1.70;;;1.20;;
25615;SDS011;13482;48.234;13.006;2023-03-21T03:04:21;3.05;;;1.30;;
25615;SDS011;13482;48.234;13.006;2023-03-21T03:07:04;2.00;;;1.38;;
25615;SDS011;13482;48.234;13.006;2023-03-21T03:13:13;1.65;;;1.00;;
25615;SDS011;13482;48.234;13.006;2023-03-21T03:24:26;3.05;;;1.20;;
25615;SDS011;13482;48.234;13.006;2023-03-21T03:27:07;2.35;;;1.20;;
25615;SDS011;13482;48.234;13.006;2023-03-21T03:29:41;2.10;;;1.25;;
25615;SDS011;13482;48.234;13.006;2023-03-21T03:32:14;1.58;;;1.20;;
25615;SDS011;13482;48.234;13.006;2023-03-21T03:34:47;1.92;;;1.10;;
25615;SDS011;13482;48.234;13.006;2023-03-21T03:37:27;1.90;;;1.40;;
25615;SDS011;13482;48.234;13.006;2023-03-21T03:40:06;1.90;;;1.10;;
25615;SDS011;13482;48.234;13.006;2023-03-21T03:42:44;1.85;;;1.27;;
25615;SDS011;13482;48.234;13.006;2023-03-21T03:45:18;4.97;;;1.50;;
25615;SDS011;13482;48.234;13.006;2023-03-21T03:48:35;2.80;;;1.40;;
25615;SDS011;13482;48.234;13.006;2023-03-21T03:51:05;1.67;;;1.25;;
25615;SDS011;13482;48.234;13.006;2023-03-21T03:53:37;1.80;;;1.30;;
25615;SDS011;13482;48.234;13.006;2023-03-21T03:56:10;1.88;;;1.35;;
25615;SDS011;13482;48.234;13.006;2023-03-21T03:58:39;1.70;;;1.25;;
25615;SDS011;13482;48.234;13.006;2023-03-21T04:01:11;2.05;;;1.30;;
25615;SDS011;13482;48.234;13.006;2023-03-21T04:03:40;1.83;;;1.30;;
25615;SDS011;13482;48.234;13.006;2023-03-21T04:06:18;3.03;;;1.30;;
25615;SDS011;13482;48.234;13.006;2023-03-21T04:08:47;1.92;;;1.35;;
25615;SDS011;13482;48.234;13.006;2023-03-21T04:11:16;2.30;;;1.50;;
25615;SDS011;13482;48.234;13.006;2023-03-21T04:13:43;1.90;;;1.45;;
25615;SDS011;13482;48.234;13.006;2023-03-21T04:16:10;2.03;;;1.48;;
25615;SDS011;13482;48.234;13.006;2023-03-21T04:18:38;1.92;;;1.48;;
25615;SDS011;13482;48.234;13.006;2023-03-21T04:21:10;2.03;;;1.30;;
25615;SDS011;13482;48.234;13.006;2023-03-21T04:23:39;1.77;;;1.30;;
25615;SDS011;13482;48.234;13.006;2023-03-21T04:26:07;2.08;;;1.27;;
25615;SDS011;13482;48.234;13.006;2023-03-21T04:28:35;1.85;;;1.20;;
25615;SDS011;13482;48.234;13.006;2023-03-21T04:31:06;2.88;;;1.35;;
25615;SDS011;13482;48.234;13.006;2023-03-21T04:33:49;3.08;;;1.40;;
25615;SDS011;13482;48.234;13.006;2023-03-21T04:36:17;2.38;;;1.40;;
25615;SDS011;13482;48.234;13.006;2023-03-21T04:38:53;1.90;;;1.38;;
25615;SDS011;13482;48.234;13.006;2023-03-21T04:41:22;1.80;;;1.35;;
25615;SDS011;13482;48.234;13.006;2023-03-21T04:43:49;2.80;;;1.30;;
25615;SDS011;13482;48.234;13.006;2023-03-21T04:46:17;2.13;;;1.40;;
25615;SDS011;13482;48.234;13.006;2023-03-21T04:48:45;2.40;;;1.40;;
25615;SDS011;13482;48.234;13.006;2023-03-21T04:51:12;2.00;;;1.35;;
25615;SDS011;13482;48.234;13.006;2023-03-21T04:53:40;2.20;;;1.38;;
25615;SDS011;13482;48.234;13.006;2023-03-21T04:56:10;2.22;;;1.70;;
25615;SDS011;13482;48.234;13.006;2023-03-21T04:58:38;6.30;;;1.77;;
25615;SDS011;13482;48.234;13.006;2023-03-21T05:01:06;2.63;;;1.70;;
25615;SDS011;13482;48.234;13.006;2023-03-21T05:03:34;1.60;;;1.30;;
25615;SDS011;13482;48.234;13.006;2023-03-21T05:06:06;2.00;;;1.55;;
25615;SDS011;13482;48.234;13.006;2023-03-21T05:08:35;2.05;;;1.42;;
25615;SDS011;13482;48.234;13.006;2023-03-21T05:11:02;2.20;;;1.27;;
25615;SDS011;13482;48.234;13.006;2023-03-21T05:13:30;2.65;;;1.92;;
25615;SDS011;13482;48.234;13.006;2023-03-21T05:15:57;1.90;;;1.60;;
25615;SDS011;13482;48.234;13.006;2023-03-21T05:18:24;3.35;;;1.65;;
25615;SDS011;13482;48.234;13.006;2023-03-21T05:20:52;2.70;;;1.73;;
25615;SDS011;13482;48.234;13.006;2023-03-21T05:23:20;2.40;;;1.70;;
25615;SDS011;13482;48.234;13.006;2023-03-21T05:25:49;2.90;;;1.80;;
25615;SDS011;13482;48.234;13.006;2023-03-21T05:28:16;2.47;;;1.75;;
25615;SDS011;13482;48.234;13.006;2023-03-21T05:30:44;2.60;;;1.60;;
25615;SDS011;13482;48.234;13.006;2023-03-21T05:33:12;2.42;;;1.77;;
25615;SDS011;13482;48.234;13.006;2023-03-21T05:35:39;2.55;;;1.65;;
25615;SDS011;13482;48.234;13.006;2023-03-21T05:38:06;2.42;;;1.80;;
25615;SDS011;13482;48.234;13.006;2023-03-21T05:40:33;2.70;;;1.70;;
25615;SDS011;13482;48.234;13.006;2023-03-21T05:43:01;2.30;;;1.63;;
25615;SDS011;13482;48.234;13.006;2023-03-21T05:45:28;2.78;;;1.92;;
25615;SDS011;13482;48.234;13.006;2023-03-21T05:47:55;2.70;;;1.77;;
25615;SDS011;13482;48.234;13.006;2023-03-21T05:50:22;2.28;;;1.75;;
25615;SDS011;13482;48.234;13.006;2023-03-21T05:52:49;3.03;;;2.03;;
25615;SDS011;13482;48.234;13.006;2023-03-21T05:55:17;2.85;;;1.65;;
25615;SDS011;13482;48.234;13.006;2023-03-21T05:57:45;2.55;;;1.67;;
25615;SDS011;13482;48.234;13.006;2023-03-21T06:00:13;2.83;;;1.85;;
25615;SDS011;13482;48.234;13.006;2023-03-21T06:02:41;2.38;;;1.80;;
25615;SDS011;13482;48.234;13.006;2023-03-21T06:05:08;3.55;;;1.60;;
25615;SDS011;13482;48.234;13.006;2023-03-21T06:07:35;3.35;;;1.73;;
25615;SDS011;13482;48.234;13.006;2023-03-21T06:10:03;2.75;;;2.03;;
25615;SDS011;13482;48.234;13.006;2023-03-21T06:12:31;2.40;;;1.90;;
25615;SDS011;13482;48.234;13.006;2023-03-21T06:14:59;2.83;;;2.00;;
25615;SDS011;13482;48.234;13.006;2023-03-21T06:17:27;2.92;;;2.10;;
25615;SDS011;13482;48.234;13.006;2023-03-21T06:19:54;2.22;;;1.67;;
25615;SDS011;13482;48.234;13.006;2023-03-21T06:22:21;2.80;;;1.77;;
25615;SDS011;13482;48.234;13.006;2023-03-21T06:24:48;3.42;;;1.63;;
25615;SDS011;13482;48.234;13.006;2023-03-21T06:27:15;1.85;;;1.42;;
25615;SDS011;13482;48.234;13.006;2023-03-21T06:29:43;2.42;;;1.60;;
25615;SDS011;13482;48.234;13.006;2023-03-21T06:32:11;2.92;;;1.80;;
25615;SDS011;13482;48.234;13.006;2023-03-21T06:34:39;3.08;;;1.80;;
25615;SDS011;13482;48.234;13.006;2023-03-21T06:37:06;2.70;;;2.00;;
25615;SDS011;13482;48.234;13.006;2023-03-21T06:39:34;2.25;;;1.70;;
25615;SDS011;13482;48.234;13.006;2023-03-21T06:42:02;3.30;;;1.63;;
25615;SDS011;13482;48.234;13.006;2023-03-21T06:44:29;4.45;;;1.77;;
25615;SDS011;13482;48.234;13.006;2023-03-21T06:46:56;3.38;;;1.77;;
25615;SDS011;13482;48.234;13.006;2023-03-21T06:49:24;3.35;;;1.55;;
25615;SDS011;13482;48.234;13.006;2023-03-21T06:51:52;2.75;;;2.03;;
25615;SDS011;13482;48.234;13.006;2023-03-21T06:54:19;3.03;;;1.98;;
25615;SDS011;13482;48.234;13.006;2023-03-21T06:56:46;2.72;;;1.85;;
25615;SDS011;13482;48.234;13.006;2023-03-21T06:59:13;1.95;;;1.52;;
25615;SDS011;13482;48.234;13.006;2023-03-21T07:01:41;2.90;;;1.83;;
25615;SDS011;13482;48.234;13.006;2023-03-21T07:04:09;2.70;;;1.77;;
25615;SDS011;13482;48.234;13.006;2023-03-21T07:06:36;2.42;;;1.73;;
25615;SDS011;13482;48.234;13.006;2023-03-21T07:09:03;2.97;;;2.20;;
25615;SDS011;13482;48.234;13.006;2023-03-21T07:11:32;2.10;;;1.50;;
25615;SDS011;13482;48.234;13.006;2023-03-21T07:14:01;2.38;;;1.60;;
25615;SDS011;13482;48.234;13.006;2023-03-21T07:16:29;2.85;;;1.60;;
25615;SDS011;13482;48.234;13.006;2023-03-21T07:18:56;2.92;;;1.63;;
25615;SDS011;13482;48.234;13.006;2023-03-21T07:21:23;2.72;;;1.70;;
25615;SDS011;13482;48.234;13.006;2023-03-21T07:23:50;1.90;;;1.38;;
25615;SDS011;13482;48.234;13.006;2023-03-21T07:26:18;2.92;;;1.58;;
25615;SDS011;13482;48.234;13.006;2023-03-21T07:28:46;2.33;;;1.60;;
25615;SDS011;13482;48.234;13.006;2023-03-21T07:31:14;2.20;;;1.38;;
25615;SDS011;13482;48.234;13.006;2023-03-21T07:33:43;1.90;;;1.38;;
25615;SDS011;13482;48.234;13.006;2023-03-21T07:36:11;2.65;;;1.58;;
25615;SDS011;13482;48.234;13.006;2023-03-21T07:38:44;3.22;;;1.30;;
25615;SDS011;13482;48.234;13.006;2023-03-21T07:41:11;2.58;;;1.75;;
25615;SDS011;13482;48.234;13.006;2023-03-21T07:43:44;2.22;;;1.40;;
25615;SDS011;13482;48.234;13.006;2023-03-21T07:46:11;2.88;;;1.90;;
25615;SDS011;13482;48.234;13.006;2023-03-21T07:48:39;2.78;;;1.90;;
25615;SDS011;13482;48.234;13.006;2023-03-21T07:51:06;2.30;;;1.60;;
25615;SDS011;13482;48.234;13.006;2023-03-21T07:53:34;2.80;;;1.77;;
25615;SDS011;13482;48.234;13.006;2023-03-21T07:56:02;2.45;;;1.80;;
25615;SDS011;13482;48.234;13.006;2023-03-21T07:58:29;2.40;;;1.85;;
25615;SDS011;13482;48.234;13.006;2023-03-21T08:00:59;2.47;;;1.88;;
25615;SDS011;13482;48.234;13.006;2023-03-21T08:03:27;3.17;;;2.10;;
25615;SDS011;13482;48.234;13.006;2023-03-21T08:05:55;2.92;;;2.10;;
25615;SDS011;13482;48.234;13.006;2023-03-21T08:08:25;3.20;;;2.28;;
25615;SDS011;13482;48.234;13.006;2023-03-21T08:10:52;3.75;;;2.50;;
25615;SDS011;13482;48.234;13.006;2023-03-21T08:13:20;4.40;;;2.92;;
25615;SDS011;13482;48.234;13.006;2023-03-21T08:15:47;4.00;;;2.67;;
25615;SDS011;13482;48.234;13.006;2023-03-21T08:18:14;3.65;;;2.70;;
25615;SDS011;13482;48.234;13.006;2023-03-21T08:20:41;2.95;;;2.53;;
25615;SDS011;13482;48.234;13.006;2023-03-21T08:23:08;3.50;;;2.47;;
25615;SDS011;13482;48.234;13.006;2023-03-21T08:25:36;3.55;;;2.50;;
25615;SDS011;13482;48.234;13.006;2023-03-21T08:28:04;4.63;;;2.80;;
25615;SDS011;13482;48.234;13.006;2023-03-21T08:30:31;3.33;;;2.70;;
25615;SDS011;13482;48.234;13.006;2023-03-21T08:32:59;3.78;;;2.53;;
25615;SDS011;13482;48.234;13.006;2023-03-21T08:35:27;3.60;;;2.85;;
25615;SDS011;13482;48.234;13.006;2023-03-21T08:37:56;3.17;;;2.65;;
25615;SDS011;13482;48.234;13.006;2023-03-21T08:40:24;4.53;;;3.35;;
25615;SDS011;13482;48.234;13.006;2023-03-21T08:42:51;5.70;;;3.50;;
25615;SDS011;13482;48.234;13.006;2023-03-21T08:45:19;4.38;;;3.17;;
25615;SDS011;13482;48.234;13.006;2023-03-21T08:47:46;3.70;;;2.80;;
25615;SDS011;13482;48.234;13.006;2023-03-21T08:50:15;5.72;;;3.10;;
25615;SDS011;13482;48.234;13.006;2023-03-21T08:52:45;4.82;;;3.55;;
25615;SDS011;13482;48.234;13.006;2023-03-21T08:55:13;4.75;;;3.63;;
25615;SDS011;13482;48.234;13.006;2023-03-21T08:57:42;4.60;;;3.40;;
25615;SDS011;13482;48.234;13.006;2023-03-21T09:00:11;4.50;;;3.30;;
25615;SDS011;13482;48.234;13.006;2023-03-21T09:02:44;4.20;;;3.28;;
25615;SDS011;13482;48.234;13.006;2023-03-21T09:05:14;4.78;;;2.97;;
25615;SDS011;13482;48.234;13.006;2023-03-21T09:07:42;3.75;;;2.80;;
25615;SDS011;13482;48.234;13.006;2023-03-21T09:10:12;4.45;;;3.00;;
25615;SDS011;13482;48.234;13.006;2023-03-21T09:12:48;4.70;;;2.55;;
25615;SDS011;13482;48.234;13.006;2023-03-21T09:15:18;4.30;;;2.65;;
25615;SDS011;13482;48.234;13.006;2023-03-21T09:17:50;3.92;;;2.60;;
25615;SDS011;13482;48.234;13.006;2023-03-21T09:20:20;3.65;;;2.95;;
25615;SDS011;13482;48.234;13.006;2023-03-21T09:22:56;3.90;;;2.60;;
25615;SDS011;13482;48.234;13.006;2023-03-21T09:25:24;4.57;;;2.97;;
25615;SDS011;13482;48.234;13.006;2023-03-21T09:27:54;3.65;;;2.75;;
25615;SDS011;13482;48.234;13.006;2023-03-21T09:30:23;3.70;;;2.88;;
25615;SDS011;13482;48.234;13.006;2023-03-21T09:32:51;3.30;;;2.45;;
25615;SDS011;13482;48.234;13.006;2023-03-21T09:35:21;5.05;;;2.97;;
25615;SDS011;13482;48.234;13.006;2023-03-21T09:37:49;3.25;;;2.65;;
25615;SDS011;13482;48.234;13.006;2023-03-21T09:49:26;3.75;;;2.75;;
25615;SDS011;13482;48.234;13.006;2023-03-21T09:51:58;4.43;;;3.00;;
25615;SDS011;13482;48.234;13.006;2023-03-21T09:54:38;6.45;;;3.00;;
25615;SDS011;13482;48.234;13.006;2023-03-21T09:57:26;3.92;;;3.05;;
25615;SDS011;13482;48.234;13.006;2023-03-21T10:00:09;4.30;;;3.05;;
25615;SDS011;13482;48.234;13.006;2023-03-21T10:02:49;4.47;;;2.70;;
25615;SDS011;13482;48.234;13.006;2023-03-21T10:05:23;4.57;;;3.22;;
25615;SDS011;13482;48.234;13.006;2023-03-21T10:07:59;5.50;;;3.63;;
25615;SDS011;13482;48.234;13.006;2023-03-21T10:10:50;3.75;;;2.72;;
25615;SDS011;13482;48.234;13.006;2023-03-21T10:15:56;2.83;;;2.20;;
25615;SDS011;13482;48.234;13.006;2023-03-21T10:18:27;3.60;;;2.60;;
25615;SDS011;13482;48.234;13.006;2023-03-21T10:20:56;3.75;;;2.53;;
25615;SDS011;13482;48.234;13.006;2023-03-21T10:23:24;3.85;;;2.95;;
25615;SDS011;13482;48.234;13.006;2023-03-21T10:25:54;3.10;;;2.50;;
25615;SDS011;13482;48.234;13.006;2023-03-21T10:28:32;3.08;;;2.28;;
25615;SDS011;13482;48.234;13.006;2023-03-21T10:31:18;3.88;;;2.60;;
25615;SDS011;13482;48.234;13.006;2023-03-21T10:33:52;4.35;;;2.75;;
25615;SDS011;13482;48.234;13.006;2023-03-21T10:36:23;3.60;;;2.13;;
25615;SDS011;13482;48.234;13.006;2023-03-21T10:41:31;3.38;;;2.58;;
25615;SDS011;13482;48.234;13.006;2023-03-21T10:44:08;3.38;;;2.50;;
25615;SDS011;13482;48.234;13.006;2023-03-21T10:46:55;2.70;;;2.20;;
25615;SDS011;13482;48.234;13.006;2023-03-21T10:49:37;2.72;;;1.92;;
25615;SDS011;13482;48.234;13.006;2023-03-21T10:52:26;3.45;;;2.03;;
25615;SDS011;13482;48.234;13.006;2023-03-21T10:57:56;3.05;;;1.90;;
25615;SDS011;13482;48.234;13.006;2023-03-21T11:00:34;3.00;;;2.17;;
25615;SDS011;13482;48.234;13.006;2023-03-21T11:03:19;3.05;;;1.70;;
25615;SDS011;13482;48.234;13.006;2023-03-21T11:05:55;2.85;;;2.00;;
25615;SDS011;13482;48.234;13.006;2023-03-21T11:08:27;3.08;;;1.90;;
25615;SDS011;13482;48.234;13.006;2023-03-21T11:11:05;2.95;;;1.80;;
25615;SDS011;13482;48.234;13.006;2023-03-21T11:13:39;3.03;;;1.80;;
25615;SDS011;13482;48.234;13.006;2023-03-21T11:18:41;2.40;;;1.73;;
25615;SDS011;13482;48.234;13.006;2023-03-21T11:21:11;2.33;;;1.67;;
25615;SDS011;13482;48.234;13.006;2023-03-21T11:23:41;1.77;;;1.35;;
25615;SDS011;13482;48.234;13.006;2023-03-21T11:26:20;2.55;;;1.77;;
25615;SDS011;13482;48.234;13.006;2023-03-21T11:28:53;2.85;;;1.80;;
25615;SDS011;13482;48.234;13.006;2023-03-21T11:31:21;2.38;;;1.60;;
25615;SDS011;13482;48.234;13.006;2023-03-21T11:34:07;2.40;;;1.77;;
25615;SDS011;13482;48.234;13.006;2023-03-21T11:36:38;2.30;;;1.70;;
25615;SDS011;13482;48.234;13.006;2023-03-21T11:42:24;2.17;;;1.55;;
25615;SDS011;13482;48.234;13.006;2023-03-21T11:45:13;2.08;;;1.50;;
25615;SDS011;13482;48.234;13.006;2023-03-21T11:47:42;3.45;;;1.50;;
25615;SDS011;13482;48.234;13.006;2023-03-21T11:50:29;2.72;;;1.40;;
25615;SDS011;13482;48.234;13.006;2023-03-21T11:55:59;3.03;;;1.77;;
25615;SDS011;13482;48.234;13.006;2023-03-21T12:04:51;2.60;;;1.70;;
25615;SDS011;13482;48.234;13.006;2023-03-21T12:13:40;1.90;;;1.27;;
25615;SDS011;13482;48.234;13.006;2023-03-21T12:22:38;3.75;;;1.60;;
25615;SDS011;13482;48.234;13.006;2023-03-21T12:25:34;1.80;;;1.17;;
25615;SDS011;13482;48.234;13.006;2023-03-21T12:28:15;1.83;;;1.02;;
25615;SDS011;13482;48.234;13.006;2023-03-21T12:37:31;2.88;;;1.70;;
25615;SDS011;13482;48.234;13.006;2023-03-21T12:46:02;1.63;;;1.20;;
25615;SDS011;13482;48.234;13.006;2023-03-21T12:48:47;1.77;;;1.20;;
25615;SDS011;13482;48.234;13.006;2023-03-21T12:51:29;1.55;;;1.02;;
25615;SDS011;13482;48.234;13.006;2023-03-21T13:06:03;2.28;;;1.10;;
25615;SDS011;13482;48.234;13.006;2023-03-21T13:08:36;1.42;;;0.90;;
25615;SDS011;13482;48.234;13.006;2023-03-21T13:11:41;1.98;;;1.00;;
25615;SDS011;13482;48.234;13.006;2023-03-21T13:14:16;1.00;;;0.73;;
25615;SDS011;13482;48.234;13.006;2023-03-21T13:16:57;1.42;;;1.00;;
25615;SDS011;13482;48.234;13.006;2023-03-21T13:19:45;2.50;;;1.50;;
25615;SDS011;13482;48.234;13.006;2023-03-21T13:22:26;2.30;;;1.30;;
25615;SDS011;13482;48.234;13.006;2023-03-21T13:25:06;2.58;;;1.30;;
25615;SDS011;13482;48.234;13.006;2023-03-21T13:27:59;1.60;;;1.10;;
25615;SDS011;13482;48.234;13.006;2023-03-21T13:30:33;1.63;;;0.90;;
25615;SDS011;13482;48.234;13.006;2023-03-21T13:33:12;1.50;;;1.08;;
25615;SDS011;13482;48.234;13.006;2023-03-21T13:35:44;1.58;;;1.00;;
25615;SDS011;13482;48.234;13.006;2023-03-21T13:38:48;1.58;;;1.20;;
25615;SDS011;13482;48.234;13.006;2023-03-21T13:41:19;1.70;;;1.20;;
25615;SDS011;13482;48.234;13.006;2023-03-21T13:44:05;1.95;;;1.20;;
25615;SDS011;13482;48.234;13.006;2023-03-21T13:46:59;1.40;;;1.10;;
25615;SDS011;13482;48.234;13.006;2023-03-21T13:52:47;1.48;;;1.00;;
25615;SDS011;13482;48.234;13.006;2023-03-21T13:54:54;1.40;;;0.95;;
25615;SDS011;13482;48.234;13.006;2023-03-21T14:03:05;2.22;;;0.90;;
25615;SDS011;13482;48.234;13.006;2023-03-21T14:05:48;2.97;;;1.25;;
25615;SDS011;13482;48.234;13.006;2023-03-21T14:08:17;1.42;;;1.00;;
25615;SDS011;13482;48.234;13.006;2023-03-21T14:11:00;4.50;;;1.40;;
25615;SDS011;13482;48.234;13.006;2023-03-21T14:13:32;3.30;;;1.27;;
25615;SDS011;13482;48.234;13.006;2023-03-21T14:16:14;1.55;;;1.00;;
25615;SDS011;13482;48.234;13.006;2023-03-21T14:18:49;3.20;;;1.25;;
25615;SDS011;13482;48.234;13.006;2023-03-21T14:23:57;1.20;;;0.90;;
25615;SDS011;13482;48.234;13.006;2023-03-21T14:26:33;1.42;;;0.82;;
25615;SDS011;13482;48.234;13.006;2023-03-21T14:29:06;2.17;;;0.85;;
25615;SDS011;13482;48.234;13.006;2023-03-21T14:31:52;1.20;;;0.80;;
25615;SDS011;13482;48.234;13.006;2023-03-21T14:34:22;2.78;;;0.88;;
25615;SDS011;13482;48.234;13.006;2023-03-21T14:36:51;1.10;;;0.80;;
25615;SDS011;13482;48.234;13.006;2023-03-21T14:39:28;2.17;;;0.70;;
25615;SDS011;13482;48.234;13.006;2023-03-21T14:42:07;1.30;;;0.70;;
25615;SDS011;13482;48.234;13.006;2023-03-21T14:44:41;2.28;;;0.80;;
25615;SDS011;13482;48.234;13.006;2023-03-21T14:47:23;1.48;;;0.73;;
25615;SDS011;13482;48.234;13.006;2023-03-21T14:50:00;0.88;;;0.60;;
25615;SDS011;13482;48.234;13.006;2023-03-21T14:52:33;1.13;;;0.70;;
25615;SDS011;13482;48.234;13.006;2023-03-21T14:55:16;1.30;;;0.82;;
25615;SDS011;13482;48.234;13.006;2023-03-21T14:57:43;1.98;;;1.13;;
25615;SDS011;13482;48.234;13.006;2023-03-21T15:00:15;4.00;;;1.33;;
25615;SDS011;13482;48.234;13.006;2023-03-21T15:02:49;1.95;;;1.30;;
25615;SDS011;13482;48.234;13.006;2023-03-21T15:05:22;1.75;;;0.90;;
25615;SDS011;13482;48.234;13.006;2023-03-21T15:10:37;1.23;;;0.80;;
25615;SDS011;13482;48.234;13.006;2023-03-21T15:13:15;1.65;;;1.00;;
25615;SDS011;13482;48.234;13.006;2023-03-21T15:15:46;2.20;;;0.90;;
25615;SDS011;13482;48.234;13.006;2023-03-21T15:18:15;2.25;;;1.08;;
25615;SDS011;13482;48.234;13.006;2023-03-21T15:21:11;1.55;;;0.95;;
25615;SDS011;13482;48.234;13.006;2023-03-21T15:23:51;2.08;;;1.10;;
25615;SDS011;13482;48.234;13.006;2023-03-21T15:26:58;1.42;;;0.90;;
25615;SDS011;13482;48.234;13.006;2023-03-21T15:29:29;1.70;;;1.10;;
25615;SDS011;13482;48.234;13.006;2023-03-21T15:32:02;1.50;;;0.90;;
25615;SDS011;13482;48.234;13.006;2023-03-21T15:34:32;2.42;;;1.10;;
25615;SDS011;13482;48.234;13.006;2023-03-21T15:37:01;1.27;;;0.95;;
25615;SDS011;13482;48.234;13.006;2023-03-21T15:39:34;2.45;;;1.25;;
25615;SDS011;13482;48.234;13.006;2023-03-21T15:48:05;2.08;;;1.17;;
25615;SDS011;13482;48.234;13.006;2023-03-21T15:50:48;1.60;;;0.82;;
25615;SDS011;13482;48.234;13.006;2023-03-21T15:53:56;1.67;;;1.00;;
25615;SDS011;13482;48.234;13.006;2023-03-21T15:56:24;1.60;;;1.00;;
25615;SDS011;13482;48.234;13.006;2023-03-21T15:59:00;1.65;;;1.00;;
25615;SDS011;13482;48.234;13.006;2023-03-21T16:01:32;1.80;;;1.10;;
25615;SDS011;13482;48.234;13.006;2023-03-21T16:04:05;1.33;;;1.00;;
25615;SDS011;13482;48.234;13.006;2023-03-21T16:06:56;1.17;;;0.90;;
25615;SDS011;13482;48.234;13.006;2023-03-21T16:09:38;1.75;;;1.10;;
25615;SDS011;13482;48.234;13.006;2023-03-21T16:12:12;2.25;;;1.10;;
25615;SDS011;13482;48.234;13.006;2023-03-21T16:14:44;1.60;;;0.90;;
25615;SDS011;13482;48.234;13.006;2023-03-21T16:17:21;3.05;;;1.10;;
25615;SDS011;13482;48.234;13.006;2023-03-21T16:19:49;1.52;;;1.00;;
25615;SDS011;13482;48.234;13.006;2023-03-21T16:22:16;1.48;;;1.02;;
25615;SDS011;13482;48.234;13.006;2023-03-21T16:24:45;2.00;;;1.10;;
25615;SDS011;13482;48.234;13.006;2023-03-21T16:27:14;1.75;;;1.20;;
25615;SDS011;13482;48.234;13.006;2023-03-21T16:29:44;1.48;;;0.98;;
25615;SDS011;13482;48.234;13.006;2023-03-21T16:32:14;2.25;;;1.00;;
25615;SDS011;13482;48.234;13.006;2023-03-21T16:34:42;1.50;;;0.90;;
25615;SDS011;13482;48.234;13.006;2023-03-21T16:37:12;1.38;;;0.93;;
25615;SDS011;13482;48.234;13.006;2023-03-21T16:39:44;1.52;;;1.00;;
25615;SDS011;13482;48.234;13.006;2023-03-21T16:42:11;1.67;;;1.08;;
25615;SDS011;13482;48.234;13.006;2023-03-21T16:44:39;2.22;;;1.35;;
25615;SDS011;13482;48.234;13.006;2023-03-21T16:47:16;2.20;;;1.20;;
25615;SDS011;13482;48.234;13.006;2023-03-21T16:49:46;2.65;;;1.33;;
25615;SDS011;13482;48.234;13.006;2023-03-21T16:52:14;2.00;;;1.20;;
25615;SDS011;13482;48.234;13.006;2023-03-21T16:54:42;1.80;;;1.00;;
25615;SDS011;13482;48.234;13.006;2023-03-21T16:57:21;2.08;;;1.10;;
25615;SDS011;13482;48.234;13.006;2023-03-21T16:59:53;1.35;;;0.90;;
25615;SDS011;13482;48.234;13.006;2023-03-21T17:02:22;1.65;;;1.08;;
25615;SDS011;13482;48.234;13.006;2023-03-21T17:04:52;2.08;;;1.30;;
25615;SDS011;13482;48.234;13.006;2023-03-21T17:07:24;2.10;;;1.42;;
25615;SDS011;13482;48.234;13.006;2023-03-21T17:09:51;2.70;;;1.90;;
25615;SDS011;13482;48.234;13.006;2023-03-21T17:12:19;5.72;;;4.22;;
25615;SDS011;13482;48.234;13.006;2023-03-21T17:14:47;5.53;;;3.80;;
25615;SDS011;13482;48.234;13.006;2023-03-21T17:17:15;6.53;;;2.58;;